createdAt,value
2019-03-10T00:06:49.378Z,49.00
2019-03-10T00:33:47.342Z,48.80
2019-03-10T00:46:54.619Z,48.60
2019-03-10T01:00:01.939Z,48.30
2019-03-10T01:13:09.213Z,48.20
2019-03-10T01:26:33.485Z,48.00
2019-03-10T01:39:56.282Z,47.90
2019-03-10T01:53:25.213Z,47.80
2019-03-10T02:06:41.903Z,47.60
2019-03-10T02:20:04.747Z,47.40
2019-03-10T02:33:27.540Z,47.40
2019-03-10T02:46:50.365Z,47.40
2019-03-10T03:00:13.189Z,47.30
2019-03-10T03:26:37.653Z,47.20
2019-03-10T03:39:44.947Z,47.20
2019-03-10T03:52:52.244Z,47.10
2019-03-10T04:05:59.557Z,47.10
2019-03-10T04:19:06.832Z,47.00
2019-03-10T04:32:30.965Z,47.00
2019-03-10T04:45:53.775Z,47.00
2019-03-10T04:59:16.590Z,47.00
2019-03-10T05:12:39.401Z,46.90
2019-03-10T05:26:02.321Z,46.90
2019-03-10T05:52:26.745Z,46.80
2019-03-10T06:05:34.023Z,46.80
2019-03-10T06:18:41.288Z,46.80
2019-03-10T06:31:48.543Z,47.20
2019-03-10T06:44:56.193Z,49.00
2019-03-10T06:58:20.049Z,47.70
2019-03-10T07:11:42.869Z,49.20
2019-03-10T07:25:05.681Z,50.80
2019-03-10T07:38:28.576Z,50.50
2019-03-10T07:51:51.297Z,50.60
2019-03-10T08:05:14.194Z,52.30
2019-03-10T08:18:36.983Z,44.00
2019-03-10T08:31:59.741Z,46.60
2019-03-10T08:45:22.540Z,48.80
2019-03-10T08:58:45.379Z,49.70
2019-03-10T09:12:08.179Z,50.30
2019-03-10T09:25:31.017Z,51.80
2019-03-10T09:38:53.826Z,52.50
2019-03-10T09:52:16.683Z,53.00
2019-03-10T10:05:39.454Z,52.80
2019-03-10T10:32:03.955Z,52.10
2019-03-10T10:45:11.212Z,52.10
2019-03-10T10:58:18.491Z,53.00
2019-03-10T11:24:29.728Z,54.20
2019-03-10T11:37:37.066Z,55.60
2019-03-10T11:50:44.338Z,57.40
2019-03-10T12:16:55.430Z,56.70
2019-03-10T12:30:02.757Z,57.70
2019-03-10T12:43:10.109Z,55.90
2019-03-10T12:56:17.474Z,53.40
2019-03-10T13:09:24.890Z,52.40
2019-03-10T13:35:50.398Z,50.20
2019-03-10T13:48:57.785Z,49.30
2019-03-10T14:02:05.146Z,48.60
2019-03-10T14:28:16.173Z,51.10
2019-03-10T14:41:23.540Z,54.40
2019-03-10T14:54:30.928Z,56.60
2019-03-10T15:07:38.469Z,58.30
2019-03-10T15:20:45.876Z,59.10
2019-03-10T15:34:09.416Z,58.40
2019-03-10T15:47:32.390Z,60.90
2019-03-10T16:00:55.055Z,61.50
2019-03-10T16:14:17.842Z,60.60
2019-03-10T16:27:40.667Z,61.60
2019-03-10T16:41:03.483Z,60.30
2019-03-10T16:54:26.301Z,61.00
2019-03-10T17:07:49.120Z,60.30
2019-03-10T17:21:11.974Z,45.20
2019-03-10T17:34:34.747Z,51.80
2019-03-10T17:47:57.573Z,54.60
2019-03-10T18:01:20.405Z,56.80
2019-03-10T18:14:43.200Z,57.50
2019-03-10T18:28:06.428Z,59.30
2019-03-10T18:41:28.824Z,60.20
2019-03-10T18:54:51.652Z,60.70
2019-03-10T19:08:14.478Z,60.00
2019-03-10T19:21:37.292Z,60.40
2019-03-10T19:35:00.163Z,60.90
2019-03-10T19:48:23.469Z,58.20
2019-03-10T20:01:45.754Z,60.10
2019-03-10T20:15:08.531Z,61.60
2019-03-10T20:28:31.381Z,62.90
2019-03-10T20:42:04.457Z,63.20
2019-03-10T20:55:17.067Z,62.60
2019-03-10T21:08:39.782Z,63.90
2019-03-10T21:22:02.607Z,65.20
2019-03-10T21:35:25.463Z,65.90
2019-03-10T21:48:48.236Z,65.70
2019-03-10T22:15:12.839Z,66.10
2019-03-10T22:28:20.173Z,66.90
2019-03-10T22:41:27.448Z,46.80
2019-03-10T22:54:34.764Z,55.10
2019-03-10T23:20:44.913Z,59.30
2019-03-10T23:33:52.186Z,59.90
2019-03-10T23:46:59.506Z,60.00
